createdAt,value
2023-03-02T00:00:16.589Z,62.56
2023-03-02T00:02:46.024Z,61.83
2023-03-02T00:05:14.604Z,62.04
2023-03-02T00:07:42.323Z,62.16
2023-03-02T00:10:11.194Z,62.11
2023-03-02T00:12:39.145Z,62.06
2023-03-02T00:15:07.879Z,63.44
2023-03-02T00:17:37.143Z,62.76
2023-03-02T00:20:11.145Z,62.67
2023-03-02T00:22:38.922Z,62.85
2023-03-02T00:25:07.845Z,62.33
2023-03-02T00:27:35.690Z,63.17
2023-03-02T00:30:03.601Z,62.60
2023-03-02T00:32:31.381Z,62.26
2023-03-02T00:34:59.416Z,62.98
2023-03-02T00:37:28.536Z,63.50
2023-03-02T00:39:56.197Z,62.89
2023-03-02T00:42:24.418Z,62.62
2023-03-02T00:44:53.386Z,63.22
2023-03-02T00:47:21.197Z,62.92
2023-03-02T00:49:49.468Z,63.02
2023-03-02T00:52:17.613Z,64.28
2023-03-02T00:54:46.552Z,64.07
2023-03-02T00:57:14.340Z,63.60
2023-03-02T00:59:42.042Z,64.02
2023-03-02T01:02:10.350Z,63.57
2023-03-02T01:04:40.666Z,63.89
2023-03-02T01:07:11.668Z,64.32
2023-03-02T01:09:41.105Z,63.82
2023-03-02T01:12:11.430Z,63.55
2023-03-02T01:14:40.772Z,63.81
2023-03-02T01:17:09.942Z,63.65
2023-03-02T01:19:39.177Z,64.05
2023-03-02T01:22:07.296Z,64.09
2023-03-02T01:24:34.996Z,63.21
2023-03-02T01:27:02.744Z,62.72
2023-03-02T01:29:32.082Z,63.06
2023-03-02T01:31:59.791Z,63.18
2023-03-02T01:34:53.764Z,64.19
2023-03-02T01:37:22.969Z,63.39
2023-03-02T01:39:51.096Z,63.88
2023-03-02T01:43:32.238Z,64.40
2023-03-02T01:46:04.118Z,64.76
2023-03-02T01:48:38.920Z,64.36
2023-03-02T01:51:08.639Z,64.78
2023-03-02T01:53:38.273Z,64.27
2023-03-02T01:56:06.879Z,64.60
2023-03-02T01:58:37.554Z,64.14
2023-03-02T02:01:15.255Z,64.48
2023-03-02T02:03:45.198Z,64.11
2023-03-02T02:06:18.262Z,64.93
2023-03-02T02:08:46.574Z,64.39
2023-03-02T02:11:14.688Z,65.03
2023-03-02T02:13:43.300Z,64.29
2023-03-02T02:16:12.923Z,64.38
2023-03-02T02:18:41.951Z,65.21
2023-03-02T02:21:10.148Z,65.18
2023-03-02T02:23:43.974Z,65.25
2023-03-02T02:26:18.260Z,65.17
2023-03-02T02:28:52.620Z,65.21
2023-03-02T02:31:23.710Z,65.37
2023-03-02T02:33:56.505Z,64.57
2023-03-02T02:36:33.350Z,64.86
2023-03-02T02:39:05.445Z,64.64
2023-03-02T02:41:37.718Z,64.32
2023-03-02T02:44:06.036Z,64.30
2023-03-02T02:46:34.748Z,64.37
2023-03-02T02:49:03.911Z,64.77
2023-03-02T02:51:31.962Z,65.42
2023-03-02T02:54:01.593Z,64.81
2023-03-02T02:56:32.158Z,65.04
2023-03-02T02:59:05.425Z,64.66
2023-03-02T03:01:35.096Z,64.64
2023-03-02T03:04:05.067Z,64.51
2023-03-02T03:06:38.426Z,64.83
2023-03-02T03:09:07.249Z,65.15
2023-03-02T03:11:37.887Z,65.51
2023-03-02T03:14:09.858Z,65.15
2023-03-02T03:16:39.447Z,65.25
2023-03-02T03:19:13.451Z,65.44
2023-03-02T03:21:41.103Z,65.69
2023-03-02T03:24:09.204Z,64.83
2023-03-02T03:26:36.823Z,65.14
2023-03-02T03:29:07.024Z,65.34
2023-03-02T03:31:35.564Z,65.60
2023-03-02T03:34:03.748Z,64.80
2023-03-02T03:36:33.044Z,65.45
2023-03-02T03:39:01.728Z,65.74
2023-03-02T03:41:29.426Z,65.59
2023-03-02T03:43:57.104Z,65.18
2023-03-02T03:46:26.263Z,65.75
2023-03-02T03:48:54.085Z,65.53
2023-03-02T03:51:21.982Z,65.96
2023-03-02T03:53:59.649Z,65.70
2023-03-02T03:56:27.591Z,65.28
2023-03-02T03:59:06.749Z,64.79
2023-03-02T04:01:38.065Z,65.54
2023-03-02T04:04:08.336Z,65.77
2023-03-02T04:06:36.605Z,65.30
2023-03-02T04:09:05.698Z,64.99
2023-03-02T04:11:33.899Z,65.51
2023-03-02T04:14:02.064Z,65.18
2023-03-02T04:16:30.499Z,65.47
2023-03-02T04:19:00.231Z,65.20
2023-03-02T04:21:28.372Z,65.22
2023-03-02T04:23:56.535Z,65.57
2023-03-02T04:26:26.188Z,65.57
2023-03-02T04:28:54.076Z,65.52
2023-03-02T04:31:21.740Z,66.18
2023-03-02T04:33:49.352Z,66.06
2023-03-02T04:36:19.584Z,66.04
2023-03-02T04:38:47.337Z,65.81
2023-03-02T04:41:15.041Z,65.52
2023-03-02T04:43:42.688Z,65.94
2023-03-02T04:46:11.728Z,66.20
2023-03-02T04:48:39.404Z,65.73
2023-03-02T04:51:07.281Z,65.98
2023-03-02T04:53:36.303Z,66.84
2023-03-02T04:56:04.348Z,66.37
2023-03-02T04:58:32.044Z,66.61
2023-03-02T05:01:02.158Z,66.36
2023-03-02T05:03:30.068Z,67.03
2023-03-02T05:05:57.845Z,67.07
2023-03-02T05:08:25.479Z,66.80
2023-03-02T05:10:54.520Z,66.62
2023-03-02T05:13:22.268Z,67.04
2023-03-02T05:15:51.564Z,66.68
2023-03-02T05:18:19.608Z,66.45
2023-03-02T05:20:47.698Z,67.03
2023-03-02T05:23:25.177Z,67.20
2023-03-02T05:25:56.250Z,67.13
2023-03-02T05:28:25.937Z,67.23
2023-03-02T05:30:54.158Z,67.18
2023-03-02T05:33:22.441Z,67.75
2023-03-02T05:35:50.452Z,67.27
2023-03-02T05:38:18.295Z,67.19
2023-03-02T05:40:46.353Z,67.59
2023-03-02T05:43:19.752Z,67.29
2023-03-02T05:45:47.745Z,66.65
2023-03-02T05:48:15.645Z,66.63
2023-03-02T05:50:43.370Z,66.92
2023-03-02T05:53:11.369Z,67.14
2023-03-02T05:55:39.095Z,68.12
2023-03-02T05:58:08.905Z,68.19
2023-03-02T06:00:38.063Z,67.03
2023-03-02T06:03:05.810Z,67.02
2023-03-02T06:05:33.665Z,66.76
2023-03-02T06:08:01.305Z,66.98
2023-03-02T06:10:29.634Z,67.78
2023-03-02T06:12:57.360Z,68.15
2023-03-02T06:15:25.065Z,67.97
2023-03-02T06:17:54.114Z,68.17
2023-03-02T06:20:21.744Z,68.36
2023-03-02T06:22:49.404Z,68.20
2023-03-02T06:25:19.158Z,67.44
2023-03-02T06:27:47.338Z,67.25
2023-03-02T06:30:17.383Z,66.96
2023-03-02T06:32:46.209Z,67.42
2023-03-02T06:35:15.805Z,67.92
2023-03-02T06:37:44.346Z,67.58
2023-03-02T06:40:14.016Z,67.14
2023-03-02T06:42:43.596Z,67.05
2023-03-02T06:45:12.439Z,66.30
2023-03-02T06:47:40.457Z,66.62
2023-03-02T06:50:09.700Z,67.03
2023-03-02T06:52:38.730Z,66.61
2023-03-02T06:55:07.637Z,66.22
2023-03-02T06:57:35.409Z,66.38
2023-03-02T07:00:07.705Z,66.66
2023-03-02T07:02:35.615Z,67.09
2023-03-02T07:05:03.382Z,66.93
2023-03-02T07:07:31.114Z,66.81
2023-03-02T07:10:00.351Z,66.58
2023-03-02T07:12:28.071Z,66.70
2023-03-02T07:14:55.764Z,66.56
2023-03-02T07:17:23.384Z,66.67
2023-03-02T07:19:51.195Z,66.03
2023-03-02T07:22:18.808Z,65.62
2023-03-02T07:24:46.416Z,65.40
2023-03-02T07:27:15.383Z,64.73
2023-03-02T07:29:42.983Z,64.87
2023-03-02T07:32:12.474Z,65.22
2023-03-02T07:34:40.453Z,64.45
2023-03-02T07:37:08.442Z,64.43
2023-03-02T07:39:36.155Z,64.79
2023-03-02T07:42:07.014Z,64.27
2023-03-02T07:44:36.055Z,63.89
2023-03-02T07:47:04.068Z,63.24
2023-03-02T07:49:32.072Z,63.73
2023-03-02T07:51:59.812Z,63.18
2023-03-02T07:54:30.333Z,63.13
2023-03-02T07:56:58.310Z,62.89
2023-03-02T07:59:28.266Z,62.49
2023-03-02T08:01:57.978Z,62.94
2023-03-02T08:04:26.217Z,62.74
2023-03-02T08:06:53.828Z,62.86
2023-03-02T08:09:21.421Z,60.30
2023-03-02T08:11:49.063Z,57.94
2023-03-02T08:14:16.701Z,58.16
2023-03-02T08:16:44.354Z,57.72
2023-03-02T08:19:13.421Z,56.46
2023-03-02T08:21:41.165Z,56.61
2023-03-02T08:24:09.466Z,56.92
2023-03-02T08:26:37.178Z,54.86
2023-03-02T08:29:05.223Z,54.04
2023-03-02T08:31:33.235Z,52.97
2023-03-02T08:34:01.140Z,51.79
2023-03-02T08:36:30.408Z,52.77
2023-03-02T08:38:58.107Z,52.51
2023-03-02T08:41:26.126Z,53.68
2023-03-02T08:43:54.295Z,52.38
2023-03-02T08:46:22.548Z,53.14
2023-03-02T08:48:51.241Z,50.73
2023-03-02T08:51:20.879Z,51.07
2023-03-02T08:53:51.769Z,51.46
2023-03-02T08:56:21.611Z,50.58
2023-03-02T08:58:50.156Z,50.95
2023-03-02T09:01:19.808Z,50.34
2023-03-02T09:03:47.880Z,49.70
2023-03-02T09:06:16.444Z,47.96
2023-03-02T09:08:44.842Z,49.48
2023-03-02T09:11:13.989Z,48.83
2023-03-02T09:13:41.852Z,46.56
2023-03-02T09:16:09.717Z,46.88
2023-03-02T09:18:37.638Z,46.73
2023-03-02T09:21:05.741Z,45.03
2023-03-02T09:23:34.027Z,44.58
2023-03-02T09:26:01.964Z,46.90
2023-03-02T09:28:31.357Z,46.38
2023-03-02T09:31:01.331Z,45.35
2023-03-02T09:33:29.499Z,46.00
2023-03-02T09:35:57.102Z,48.57
2023-03-02T09:38:25.368Z,46.74
2023-03-02T09:41:09.708Z,46.74
2023-03-02T09:43:48.862Z,45.57
2023-03-02T09:46:21.732Z,44.07
2023-03-02T09:49:16.783Z,44.69
2023-03-02T09:51:48.197Z,45.61
2023-03-02T09:54:20.626Z,44.47
2023-03-02T09:56:50.897Z,45.27
2023-03-02T09:59:27.243Z,43.89
2023-03-02T10:02:01.353Z,43.69
2023-03-02T10:04:32.646Z,43.06
2023-03-02T10:07:11.504Z,43.60
2023-03-02T10:09:39.455Z,44.34
2023-03-02T10:12:30.523Z,43.37
2023-03-02T10:15:04.854Z,44.27
2023-03-02T10:17:47.015Z,43.47
2023-03-02T10:20:21.010Z,40.91
2023-03-02T10:22:53.837Z,41.88
2023-03-02T10:25:32.207Z,40.79
2023-03-02T10:28:09.325Z,41.02
2023-03-02T10:30:39.462Z,41.11
2023-03-02T10:33:15.044Z,40.57
2023-03-02T10:35:47.418Z,40.72
2023-03-02T10:38:17.470Z,40.48
2023-03-02T10:40:48.399Z,41.05
2023-03-02T10:43:19.960Z,42.66
2023-03-02T10:46:00.364Z,41.72
2023-03-02T10:48:28.364Z,39.41
2023-03-02T10:50:57.119Z,41.18
2023-03-02T10:53:25.018Z,41.20
2023-03-02T10:55:54.176Z,42.80
2023-03-02T10:58:27.256Z,42.20
2023-03-02T11:01:01.949Z,41.34
2023-03-02T11:03:30.323Z,41.26
2023-03-02T11:05:58.812Z,40.90
2023-03-02T11:08:28.542Z,39.32
2023-03-02T11:11:00.577Z,38.54
2023-03-02T11:13:31.860Z,39.25
2023-03-02T11:16:02.355Z,39.93
2023-03-02T11:18:34.068Z,39.33
2023-03-02T11:21:05.606Z,39.35
2023-03-02T11:23:45.646Z,38.38
2023-03-02T11:26:22.717Z,40.28
2023-03-02T11:28:56.322Z,39.15
2023-03-02T11:31:34.005Z,38.70
2023-03-02T11:34:17.942Z,39.85
2023-03-02T11:36:54.559Z,39.91
2023-03-02T11:39:30.189Z,38.91
2023-03-02T11:41:58.046Z,38.73
2023-03-02T11:44:27.367Z,39.81
2023-03-02T11:47:00.935Z,38.61
2023-03-02T11:49:38.696Z,37.57
2023-03-02T11:52:16.104Z,37.23
2023-03-02T11:54:47.751Z,35.94
2023-03-02T11:57:24.257Z,37.83
2023-03-02T11:59:53.410Z,36.91
2023-03-02T12:02:23.337Z,38.95
2023-03-02T12:05:01.746Z,38.73
2023-03-02T12:07:29.345Z,37.23
2023-03-02T12:10:02.923Z,37.76
2023-03-02T12:12:40.821Z,36.43
2023-03-02T12:15:43.966Z,37.24
2023-03-02T12:18:43.264Z,37.40
2023-03-02T12:21:13.250Z,37.75
2023-03-02T12:23:58.175Z,38.54
2023-03-02T12:26:31.401Z,36.36
2023-03-02T12:29:05.689Z,36.05
2023-03-02T12:31:48.276Z,36.64
2023-03-02T12:34:29.900Z,36.12
2023-03-02T12:37:02.868Z,36.32
2023-03-02T12:39:45.374Z,38.25
2023-03-02T12:42:39.509Z,37.77
2023-03-02T12:45:21.745Z,38.17
2023-03-02T12:47:57.971Z,38.22
2023-03-02T12:50:31.065Z,39.54
2023-03-02T12:53:00.668Z,38.01
2023-03-02T12:55:29.029Z,38.06
2023-03-02T12:57:59.092Z,37.71
2023-03-02T13:00:30.154Z,36.62
2023-03-02T13:03:00.071Z,37.20
2023-03-02T13:05:31.539Z,38.09
2023-03-02T13:08:02.043Z,36.61
2023-03-02T13:10:36.930Z,36.60
2023-03-02T13:13:16.687Z,36.83
2023-03-02T13:15:52.670Z,37.10
2023-03-02T13:18:21.970Z,36.57
2023-03-02T13:20:51.996Z,37.88
2023-03-02T13:23:20.997Z,37.27
2023-03-02T13:25:51.471Z,35.39
2023-03-02T13:28:30.855Z,36.96
2023-03-02T13:31:02.040Z,37.36
2023-03-02T13:33:31.115Z,36.56
2023-03-02T13:36:01.403Z,37.03
2023-03-02T13:38:35.338Z,37.10
2023-03-02T13:41:03.899Z,37.82
2023-03-02T13:43:37.026Z,37.03
2023-03-02T13:46:06.337Z,37.02
2023-03-02T13:48:34.534Z,36.80
2023-03-02T13:51:15.854Z,37.33
2023-03-02T13:53:51.461Z,37.11
2023-03-02T13:56:19.817Z,37.15
2023-03-02T13:58:48.022Z,38.26
2023-03-02T14:01:15.773Z,38.35
2023-03-02T14:03:43.431Z,38.04
2023-03-02T14:06:12.471Z,38.22
2023-03-02T14:08:40.090Z,39.88
2023-03-02T14:11:08.418Z,39.44
2023-03-02T14:13:39.720Z,39.70
2023-03-02T14:16:08.491Z,39.18
2023-03-02T14:18:39.736Z,38.77
2023-03-02T14:21:14.404Z,39.06
2023-03-02T14:23:42.419Z,38.42
2023-03-02T14:26:28.083Z,38.88
2023-03-02T14:29:04.999Z,38.35
2023-03-02T14:31:33.483Z,38.76
2023-03-02T14:34:01.395Z,37.94
2023-03-02T14:36:33.072Z,38.12
2023-03-02T14:39:03.769Z,39.18
2023-03-02T14:41:34.330Z,38.32
2023-03-02T14:44:06.148Z,37.94
2023-03-02T14:46:33.895Z,39.17
2023-03-02T14:49:01.622Z,39.98
2023-03-02T14:51:35.748Z,39.34
2023-03-02T14:54:06.773Z,38.11
2023-03-02T14:56:34.746Z,38.33
2023-03-02T14:59:02.521Z,40.07
2023-03-02T15:01:31.097Z,39.95
2023-03-02T15:03:58.911Z,40.13
2023-03-02T15:06:31.717Z,40.26
2023-03-02T15:09:01.504Z,42.32
2023-03-02T15:11:29.722Z,40.04
2023-03-02T15:13:57.702Z,39.99
2023-03-02T15:16:25.859Z,39.80
2023-03-02T15:18:54.181Z,40.70
2023-03-02T15:21:24.246Z,40.45
2023-03-02T15:23:53.360Z,40.09
2023-03-02T15:26:21.107Z,40.33
2023-03-02T15:28:51.861Z,40.44
2023-03-02T15:31:21.184Z,40.04
2023-03-02T15:33:51.902Z,39.81
2023-03-02T15:36:19.739Z,39.93
2023-03-02T15:38:50.803Z,40.30
2023-03-02T15:41:20.237Z,40.10
2023-03-02T15:43:51.030Z,40.68
2023-03-02T15:46:18.780Z,40.51
2023-03-02T15:48:46.603Z,41.97
2023-03-02T15:51:14.278Z,41.13
2023-03-02T15:53:42.011Z,43.18
2023-03-02T15:56:13.486Z,42.38
2023-03-02T15:58:47.559Z,42.44
2023-03-02T16:01:16.522Z,43.15
2023-03-02T16:03:45.252Z,44.22
2023-03-02T16:06:13.455Z,44.11
2023-03-02T16:08:41.104Z,43.38
2023-03-02T16:11:09.770Z,44.11
2023-03-02T16:13:37.538Z,44.82
2023-03-02T16:16:07.530Z,44.62
2023-03-02T16:18:35.220Z,44.65
2023-03-02T16:21:03.532Z,44.42
2023-03-02T16:23:31.135Z,45.43
2023-03-02T16:26:08.493Z,45.64
2023-03-02T16:28:36.192Z,45.57
2023-03-02T16:31:06.708Z,45.99
2023-03-02T16:33:34.869Z,46.24
2023-03-02T16:36:02.676Z,46.51
2023-03-02T16:38:30.519Z,47.25
2023-03-02T16:40:58.193Z,46.51
2023-03-02T16:43:26.165Z,46.37
2023-03-02T16:45:53.968Z,46.37
2023-03-02T16:48:23.408Z,46.60
2023-03-02T16:50:56.191Z,46.40
2023-03-02T16:53:24.225Z,46.50
2023-03-02T16:55:52.121Z,46.52
2023-03-02T16:58:19.762Z,46.76
2023-03-02T17:00:47.430Z,47.22
2023-03-02T17:03:16.576Z,46.81
2023-03-02T17:05:45.510Z,46.59
2023-03-02T17:08:15.102Z,47.26
2023-03-02T17:10:43.302Z,47.64
2023-03-02T17:13:15.288Z,47.90
2023-03-02T17:15:43.347Z,48.07
2023-03-02T17:18:11.873Z,48.13
2023-03-02T17:20:39.696Z,49.02
2023-03-02T17:23:08.702Z,48.70
2023-03-02T17:25:36.348Z,48.71
2023-03-02T17:28:04.134Z,49.17
2023-03-02T17:30:32.112Z,49.56
2023-03-02T17:32:59.770Z,48.95
2023-03-02T17:35:27.508Z,49.77
2023-03-02T17:37:55.257Z,50.70
2023-03-02T17:40:24.810Z,51.27
2023-03-02T17:42:54.934Z,50.86
2023-03-02T17:45:26.587Z,50.91
2023-03-02T17:47:55.523Z,51.48
2023-03-02T17:50:24.384Z,51.07
2023-03-02T17:52:52.161Z,50.73
2023-03-02T17:55:19.994Z,50.33
2023-03-02T17:57:49.403Z,51.51
2023-03-02T18:00:19.792Z,50.77
2023-03-02T18:02:48.035Z,50.97
2023-03-02T18:05:15.916Z,50.50
2023-03-02T18:07:43.598Z,49.72
2023-03-02T18:10:12.709Z,49.90
2023-03-02T18:12:40.660Z,49.31
2023-03-02T18:15:11.184Z,49.60
2023-03-02T18:17:39.161Z,48.87
2023-03-02T18:20:08.087Z,48.95
2023-03-02T18:22:35.871Z,49.02
2023-03-02T18:25:03.562Z,49.48
2023-03-02T18:27:31.506Z,49.04
2023-03-02T18:29:59.223Z,48.81
2023-03-02T18:32:28.415Z,49.24
2023-03-02T18:34:56.190Z,49.70
2023-03-02T18:37:23.908Z,50.16
2023-03-02T18:39:51.604Z,49.64
2023-03-02T18:42:19.246Z,49.03
2023-03-02T18:44:47.297Z,48.85
2023-03-02T18:47:17.998Z,49.39
2023-03-02T18:49:47.403Z,49.50
2023-03-02T18:52:16.623Z,49.67
2023-03-02T18:54:44.428Z,49.80
2023-03-02T18:57:12.069Z,49.65
2023-03-02T18:59:40.244Z,50.36
2023-03-02T19:02:08.162Z,50.02
2023-03-02T19:04:35.816Z,50.29
2023-03-02T19:07:06.945Z,49.77
2023-03-02T19:09:35.136Z,50.46
2023-03-02T19:12:04.556Z,50.43
2023-03-02T19:14:32.223Z,51.10
2023-03-02T19:17:00.124Z,50.18
2023-03-02T19:19:28.726Z,50.11
2023-03-02T19:21:56.524Z,49.21
2023-03-02T19:24:25.536Z,47.58
2023-03-02T19:26:53.201Z,48.60
2023-03-02T19:29:22.289Z,48.16
2023-03-02T19:31:50.491Z,48.48
2023-03-02T19:34:18.323Z,47.87
2023-03-02T19:36:46.645Z,47.18
2023-03-02T19:39:14.925Z,47.65
2023-03-02T19:41:45.552Z,47.56
2023-03-02T19:44:13.575Z,47.20
2023-03-02T19:46:41.415Z,47.54
2023-03-02T19:49:09.464Z,48.16
2023-03-02T19:51:37.362Z,47.76
2023-03-02T19:54:05.319Z,47.02
2023-03-02T19:56:35.143Z,46.45
2023-03-02T19:59:04.345Z,47.62
2023-03-02T20:01:32.065Z,49.67
2023-03-02T20:04:00.172Z,49.36
2023-03-02T20:06:31.156Z,50.10
2023-03-02T20:09:02.584Z,49.29
2023-03-02T20:11:31.274Z,50.04
2023-03-02T20:14:02.029Z,50.80
2023-03-02T20:16:32.095Z,51.57
2023-03-02T20:19:02.077Z,50.89
2023-03-02T20:21:29.835Z,50.02
2023-03-02T20:23:57.987Z,50.89
2023-03-02T20:26:27.032Z,51.69
2023-03-02T20:28:58.977Z,55.26
2023-03-02T20:31:27.976Z,56.06
2023-03-02T20:33:57.496Z,56.73
2023-03-02T20:36:28.429Z,58.93
2023-03-02T20:38:59.051Z,60.21
2023-03-02T20:41:27.016Z,60.62
2023-03-02T20:43:54.996Z,58.46
2023-03-02T20:46:26.287Z,60.71
2023-03-02T20:48:54.844Z,61.47
2023-03-02T20:51:24.339Z,60.42
2023-03-02T20:53:53.138Z,61.42
2023-03-02T20:56:22.295Z,62.14
2023-03-02T20:58:51.058Z,62.92
2023-03-02T21:01:20.777Z,60.16
2023-03-02T21:03:48.632Z,60.16
2023-03-02T21:06:16.927Z,60.90
2023-03-02T21:08:47.339Z,62.47
2023-03-02T21:11:17.724Z,62.39
2023-03-02T21:13:46.955Z,60.14
2023-03-02T21:16:18.536Z,58.50
2023-03-02T21:18:46.342Z,58.80
2023-03-02T21:21:14.146Z,61.70
2023-03-02T21:23:42.071Z,64.75
2023-03-02T21:26:12.868Z,65.28
2023-03-02T21:28:43.970Z,61.78
2023-03-02T21:31:12.632Z,59.51
2023-03-02T21:33:40.509Z,58.95
2023-03-02T21:36:09.352Z,56.26
2023-03-02T21:38:37.006Z,58.96
2023-03-02T21:41:04.772Z,57.19
2023-03-02T21:43:34.110Z,56.71
2023-03-02T21:46:02.336Z,58.96
2023-03-02T21:48:30.175Z,61.85
2023-03-02T21:50:57.914Z,63.37
2023-03-02T21:53:25.530Z,60.97
2023-03-02T21:55:54.970Z,59.98
2023-03-02T21:58:23.454Z,63.75
2023-03-02T22:00:52.399Z,66.48
2023-03-02T22:03:20.090Z,67.97
2023-03-02T22:05:47.784Z,67.26
2023-03-02T22:08:18.577Z,66.65
2023-03-02T22:10:48.591Z,65.11
2023-03-02T22:13:20.323Z,65.81
2023-03-02T22:15:49.076Z,67.10
2023-03-02T22:18:19.940Z,68.98
2023-03-02T22:20:49.389Z,69.53
2023-03-02T22:23:19.484Z,68.86
2023-03-02T22:25:47.733Z,67.72
2023-03-02T22:28:18.004Z,67.67
2023-03-02T22:30:45.899Z,68.52
2023-03-02T22:33:20.721Z,68.87
2023-03-02T22:35:48.840Z,68.21
2023-03-02T22:38:23.392Z,67.03
2023-03-02T22:40:51.539Z,65.79
2023-03-02T22:43:25.520Z,66.82
2023-03-02T22:45:53.566Z,68.09
2023-03-02T22:48:25.578Z,68.79
2023-03-02T22:50:53.217Z,69.14
2023-03-02T22:53:25.101Z,68.64
2023-03-02T22:55:57.423Z,69.16
2023-03-02T22:58:29.900Z,69.88
2023-03-02T23:00:58.431Z,71.21
2023-03-02T23:03:36.832Z,71.36
2023-03-02T23:06:34.280Z,71.78
2023-03-02T23:09:04.856Z,71.40
2023-03-02T23:11:35.047Z,71.04
2023-03-02T23:14:03.950Z,69.64
2023-03-02T23:16:36.186Z,69.98
2023-03-02T23:19:05.786Z,70.54
2023-03-02T23:21:39.828Z,70.99
2023-03-02T23:24:09.239Z,71.24
2023-03-02T23:26:37.270Z,71.01
2023-03-02T23:29:05.999Z,70.76
2023-03-02T23:31:33.804Z,71.42
2023-03-02T23:34:01.405Z,72.26
2023-03-02T23:36:31.958Z,72.34
2023-03-02T23:38:59.789Z,73.69
2023-03-02T23:41:27.778Z,73.08
2023-03-02T23:43:55.485Z,72.96
2023-03-02T23:46:23.132Z,72.78
2023-03-02T23:48:51.679Z,74.21
2023-03-02T23:51:19.507Z,74.13
2023-03-02T23:53:48.506Z,74.16
2023-03-02T23:56:16.191Z,73.79
2023-03-02T23:58:43.876Z,73.98
